sensor_id;sensor_type;location;lat;lon;timestamp;temperature;humidity
54614;DHT22;40514;52.758;6.360;2022-09-09T00:09:21;15.30;99.90
54614;DHT22;40514;52.758;6.360;2022-09-09T00:11:54;15.30;99.90
54614;DHT22;40514;52.758;6.360;2022-09-09T00:14:23;15.30;99.90
54614;DHT22;40514;52.758;6.360;2022-09-09T00:16:53;15.30;99.90
54614;DHT22;40514;52.758;6.360;2022-09-09T00:19:28;15.30;99.90
54614;DHT22;40514;52.758;6.360;2022-09-09T00:26:53;15.30;99.90
54614;DHT22;40514;52.758;6.360;2022-09-09T00:29:30;15.40;99.90
54614;DHT22;40514;52.758;6.360;2022-09-09T00:32:00;15.40;99.90
54614;DHT22;40514;52.758;6.360;2022-09-09T00:34:28;15.40;99.90
54614;DHT22;40514;52.758;6.360;2022-09-09T00:36:54;15.40;99.90
54614;DHT22;40514;52.758;6.360;2022-09-09T00:39:30;15.30;99.90
54614;DHT22;40514;52.758;6.360;2022-09-09T00:44:37;15.30;99.90
54614;DHT22;40514;52.758;6.360;2022-09-09T00:47:12;15.30;99.90
54614;DHT22;40514;52.758;6.360;2022-09-09T00:49:57;15.30;99.90
54614;DHT22;40514;52.758;6.360;2022-09-09T00:55:20;15.40;99.90
54614;DHT22;40514;52.758;6.360;2022-09-09T00:57:48;15.40;99.90
54614;DHT22;40514;52.758;6.360;2022-09-09T01:02:46;15.40;99.90
54614;DHT22;40514;52.758;6.360;2022-09-09T01:05:20;15.40;99.90
54614;DHT22;40514;52.758;6.360;2022-09-09T01:07:47;15.40;99.90
54614;DHT22;40514;52.758;6.360;2022-09-09T01:10:29;15.40;99.90
54614;DHT22;40514;52.758;6.360;2022-09-09T01:12:58;15.40;99.90
54614;DHT22;40514;52.758;6.360;2022-09-09T01:15:27;15.40;99.90
54614;DHT22;40514;52.758;6.360;2022-09-09T01:18:04;15.40;99.90
54614;DHT22;40514;52.758;6.360;2022-09-09T01:28:16;15.40;99.90
54614;DHT22;40514;52.758;6.360;2022-09-09T01:30:42;15.50;99.90
54614;DHT22;40514;52.758;6.360;2022-09-09T01:33:12;15.50;99.90
54614;DHT22;40514;52.758;6.360;2022-09-09T01:38:22;15.50;99.90
54614;DHT22;40514;52.758;6.360;2022-09-09T01:40:49;15.60;99.90
54614;DHT22;40514;52.758;6.360;2022-09-09T01:43:20;15.60;99.90
54614;DHT22;40514;52.758;6.360;2022-09-09T01:45:46;15.60;99.90
54614;DHT22;40514;52.758;6.360;2022-09-09T01:48:17;15.60;99.90
54614;DHT22;40514;52.758;6.360;2022-09-09T01:53:47;15.50;99.90
54614;DHT22;40514;52.758;6.360;2022-09-09T02:03:42;15.40;99.90
54614;DHT22;40514;52.758;6.360;2022-09-09T02:06:15;15.30;99.90
54614;DHT22;40514;52.758;6.360;2022-09-09T02:08:47;15.30;99.90
54614;DHT22;40514;52.758;6.360;2022-09-09T02:11:22;15.30;99.90
54614;DHT22;40514;52.758;6.360;2022-09-09T02:14:08;15.30;99.90
54614;DHT22;40514;52.758;6.360;2022-09-09T02:19:02;15.30;99.90
54614;DHT22;40514;52.758;6.360;2022-09-09T02:21:31;15.30;99.90
54614;DHT22;40514;52.758;6.360;2022-09-09T02:23:58;15.30;99.90
54614;DHT22;40514;52.758;6.360;2022-09-09T02:26:27;15.30;99.90
54614;DHT22;40514;52.758;6.360;2022-09-09T02:28:57;15.30;99.90
54614;DHT22;40514;52.758;6.360;2022-09-09T02:31:27;15.20;99.90
54614;DHT22;40514;52.758;6.360;2022-09-09T02:33:57;15.30;99.90
54614;DHT22;40514;52.758;6.360;2022-09-09T02:36:30;15.20;99.90
54614;DHT22;40514;52.758;6.360;2022-09-09T02:38:59;15.30;99.90
54614;DHT22;40514;52.758;6.360;2022-09-09T02:41:30;15.30;99.90
54614;DHT22;40514;52.758;6.360;2022-09-09T02:43:57;15.20;99.90
54614;DHT22;40514;52.758;6.360;2022-09-09T02:46:36;15.30;99.90
54614;DHT22;40514;52.758;6.360;2022-09-09T02:49:13;15.30;99.90
54614;DHT22;40514;52.758;6.360;2022-09-09T02:51:51;15.30;99.90
54614;DHT22;40514;52.758;6.360;2022-09-09T02:54:34;15.30;99.90
54614;DHT22;40514;52.758;6.360;2022-09-09T02:57:03;15.30;99.90
54614;DHT22;40514;52.758;6.360;2022-09-09T02:59:35;15.30;99.90
54614;DHT22;40514;52.758;6.360;2022-09-09T03:02:01;15.30;99.90
54614;DHT22;40514;52.758;6.360;2022-09-09T03:04:27;15.30;99.90
54614;DHT22;40514;52.758;6.360;2022-09-09T03:06:53;15.30;99.90
54614;DHT22;40514;52.758;6.360;2022-09-09T03:09:19;15.30;99.90
54614;DHT22;40514;52.758;6.360;2022-09-09T03:11:45;15.20;99.90
54614;DHT22;40514;52.758;6.360;2022-09-09T03:14:13;15.20;99.90
54614;DHT22;40514;52.758;6.360;2022-09-09T03:16:49;15.20;99.90
54614;DHT22;40514;52.758;6.360;2022-09-09T03:19:15;15.20;99.90
54614;DHT22;40514;52.758;6.360;2022-09-09T03:21:41;15.20;99.90
54614;DHT22;40514;52.758;6.360;2022-09-09T03:24:10;15.20;99.90
54614;DHT22;40514;52.758;6.360;2022-09-09T03:26:36;15.10;99.90
54614;DHT22;40514;52.758;6.360;2022-09-09T03:29:03;15.20;99.90
54614;DHT22;40514;52.758;6.360;2022-09-09T03:31:32;15.20;99.90
54614;DHT22;40514;52.758;6.360;2022-09-09T03:34:01;15.20;99.90
54614;DHT22;40514;52.758;6.360;2022-09-09T03:36:28;15.20;99.90
54614;DHT22;40514;52.758;6.360;2022-09-09T03:38:56;15.20;99.90
54614;DHT22;40514;52.758;6.360;2022-09-09T03:41:25;15.20;99.90
54614;DHT22;40514;52.758;6.360;2022-09-09T03:43:52;15.20;99.90
54614;DHT22;40514;52.758;6.360;2022-09-09T03:46:19;15.20;99.90
54614;DHT22;40514;52.758;6.360;2022-09-09T03:48:44;15.20;99.90
54614;DHT22;40514;52.758;6.360;2022-09-09T03:51:10;15.20;99.90
54614;DHT22;40514;52.758;6.360;2022-09-09T03:53:42;15.10;99.90
54614;DHT22;40514;52.758;6.360;2022-09-09T03:56:12;15.10;99.90
54614;DHT22;40514;52.758;6.360;2022-09-09T03:58:40;15.10;99.90
54614;DHT22;40514;52.758;6.360;2022-09-09T04:01:08;15.20;99.90
54614;DHT22;40514;52.758;6.360;2022-09-09T04:03:36;15.10;99.90
54614;DHT22;40514;52.758;6.360;2022-09-09T04:06:03;15.10;99.90
54614;DHT22;40514;52.758;6.360;2022-09-09T04:08:29;15.10;99.90
54614;DHT22;40514;52.758;6.360;2022-09-09T04:11:09;15.00;99.90
54614;DHT22;40514;52.758;6.360;2022-09-09T04:13:38;15.00;99.90
54614;DHT22;40514;52.758;6.360;2022-09-09T04:16:09;15.00;99.90
54614;DHT22;40514;52.758;6.360;2022-09-09T04:18:35;15.00;99.90
54614;DHT22;40514;52.758;6.360;2022-09-09T04:21:01;15.00;99.90
54614;DHT22;40514;52.758;6.360;2022-09-09T04:23:34;15.00;99.90
54614;DHT22;40514;52.758;6.360;2022-09-09T04:26:01;15.00;99.90
54614;DHT22;40514;52.758;6.360;2022-09-09T04:28:29;14.90;99.90
54614;DHT22;40514;52.758;6.360;2022-09-09T04:30:55;14.90;99.90
54614;DHT22;40514;52.758;6.360;2022-09-09T04:33:29;14.90;99.90
54614;DHT22;40514;52.758;6.360;2022-09-09T04:35:59;14.80;99.90
54614;DHT22;40514;52.758;6.360;2022-09-09T04:38:25;14.80;99.90
54614;DHT22;40514;52.758;6.360;2022-09-09T04:40:54;14.80;99.90
54614;DHT22;40514;52.758;6.360;2022-09-09T04:43:25;14.80;99.90
54614;DHT22;40514;52.758;6.360;2022-09-09T04:45:53;14.80;99.90
54614;DHT22;40514;52.758;6.360;2022-09-09T04:48:24;14.70;99.90
54614;DHT22;40514;52.758;6.360;2022-09-09T04:50:56;14.80;99.90
54614;DHT22;40514;52.758;6.360;2022-09-09T04:53:27;14.80;99.90
54614;DHT22;40514;52.758;6.360;2022-09-09T04:56:05;14.70;99.90
54614;DHT22;40514;52.758;6.360;2022-09-09T04:58:34;14.70;99.90
54614;DHT22;40514;52.758;6.360;2022-09-09T05:01:11;14.70;99.90
54614;DHT22;40514;52.758;6.360;2022-09-09T05:03:43;14.70;99.90
54614;DHT22;40514;52.758;6.360;2022-09-09T05:06:11;14.70;99.90
54614;DHT22;40514;52.758;6.360;2022-09-09T05:08:38;14.70;99.90
54614;DHT22;40514;52.758;6.360;2022-09-09T05:11:14;14.70;99.90
54614;DHT22;40514;52.758;6.360;2022-09-09T05:13:44;14.60;99.90
54614;DHT22;40514;52.758;6.360;2022-09-09T05:16:11;14.60;99.90
54614;DHT22;40514;52.758;6.360;2022-09-09T05:18:39;14.60;99.90
54614;DHT22;40514;52.758;6.360;2022-09-09T05:21:06;14.60;99.90
54614;DHT22;40514;52.758;6.360;2022-09-09T05:23:31;14.60;99.90
54614;DHT22;40514;52.758;6.360;2022-09-09T05:25:58;14.60;99.90
54614;DHT22;40514;52.758;6.360;2022-09-09T05:28:24;14.60;99.90
54614;DHT22;40514;52.758;6.360;2022-09-09T05:31:00;14.60;99.90
54614;DHT22;40514;52.758;6.360;2022-09-09T05:33:29;14.60;99.90
54614;DHT22;40514;52.758;6.360;2022-09-09T05:36:03;14.60;99.90
54614;DHT22;40514;52.758;6.360;2022-09-09T05:38:34;14.60;99.90
54614;DHT22;40514;52.758;6.360;2022-09-09T05:41:00;14.70;99.90
54614;DHT22;40514;52.758;6.360;2022-09-09T05:43:26;14.60;99.90
54614;DHT22;40514;52.758;6.360;2022-09-09T05:46:02;14.60;99.90
54614;DHT22;40514;52.758;6.360;2022-09-09T05:48:28;14.60;99.90
54614;DHT22;40514;52.758;6.360;2022-09-09T05:50:54;14.60;99.90
54614;DHT22;40514;52.758;6.360;2022-09-09T05:53:20;14.70;99.90
54614;DHT22;40514;52.758;6.360;2022-09-09T05:55:45;14.70;99.90
54614;DHT22;40514;52.758;6.360;2022-09-09T05:58:11;14.70;99.90
54614;DHT22;40514;52.758;6.360;2022-09-09T06:00:36;14.70;99.90
54614;DHT22;40514;52.758;6.360;2022-09-09T06:03:03;14.70;99.90
54614;DHT22;40514;52.758;6.360;2022-09-09T06:05:28;14.70;99.90
54614;DHT22;40514;52.758;6.360;2022-09-09T06:07:55;14.80;99.90
54614;DHT22;40514;52.758;6.360;2022-09-09T06:10:21;14.80;99.90
54614;DHT22;40514;52.758;6.360;2022-09-09T06:12:47;14.80;99.90
54614;DHT22;40514;52.758;6.360;2022-09-09T06:15:12;14.90;99.90
54614;DHT22;40514;52.758;6.360;2022-09-09T06:17:38;14.90;99.90
54614;DHT22;40514;52.758;6.360;2022-09-09T06:20:04;14.80;99.90
54614;DHT22;40514;52.758;6.360;2022-09-09T06:22:30;14.90;99.90
54614;DHT22;40514;52.758;6.360;2022-09-09T06:24:55;14.90;99.90
54614;DHT22;40514;52.758;6.360;2022-09-09T06:27:21;14.90;99.90
54614;DHT22;40514;52.758;6.360;2022-09-09T06:29:46;15.00;99.90
54614;DHT22;40514;52.758;6.360;2022-09-09T06:32:13;15.00;99.90
54614;DHT22;40514;52.758;6.360;2022-09-09T06:34:38;15.00;99.90
54614;DHT22;40514;52.758;6.360;2022-09-09T06:37:04;15.00;99.90
54614;DHT22;40514;52.758;6.360;2022-09-09T06:39:31;15.00;99.90
54614;DHT22;40514;52.758;6.360;2022-09-09T06:41:57;15.10;99.90
54614;DHT22;40514;52.758;6.360;2022-09-09T06:44:24;15.10;99.90
54614;DHT22;40514;52.758;6.360;2022-09-09T06:46:52;15.20;99.90
54614;DHT22;40514;52.758;6.360;2022-09-09T06:49:17;15.20;99.90
54614;DHT22;40514;52.758;6.360;2022-09-09T06:51:43;15.20;99.90
54614;DHT22;40514;52.758;6.360;2022-09-09T06:54:09;15.20;99.90
54614;DHT22;40514;52.758;6.360;2022-09-09T06:56:35;15.20;99.90
54614;DHT22;40514;52.758;6.360;2022-09-09T06:59:02;15.30;99.90
54614;DHT22;40514;52.758;6.360;2022-09-09T07:01:30;15.40;99.90
54614;DHT22;40514;52.758;6.360;2022-09-09T07:03:57;15.50;99.90
54614;DHT22;40514;52.758;6.360;2022-09-09T07:08:50;15.60;99.90
54614;DHT22;40514;52.758;6.360;2022-09-09T07:11:16;15.70;99.90
54614;DHT22;40514;52.758;6.360;2022-09-09T07:13:41;15.70;99.90
54614;DHT22;40514;52.758;6.360;2022-09-09T07:16:08;15.80;99.90
54614;DHT22;40514;52.758;6.360;2022-09-09T07:18:34;15.90;99.90
54614;DHT22;40514;52.758;6.360;2022-09-09T07:21:00;16.00;99.90
54614;DHT22;40514;52.758;6.360;2022-09-09T07:23:27;16.10;99.90
54614;DHT22;40514;52.758;6.360;2022-09-09T07:25:53;16.20;99.90
54614;DHT22;40514;52.758;6.360;2022-09-09T07:28:19;16.30;99.90
54614;DHT22;40514;52.758;6.360;2022-09-09T07:30:52;16.40;99.90
54614;DHT22;40514;52.758;6.360;2022-09-09T07:33:18;16.50;99.90
54614;DHT22;40514;52.758;6.360;2022-09-09T07:35:45;16.70;99.90
54614;DHT22;40514;52.758;6.360;2022-09-09T07:38:11;16.70;99.90
54614;DHT22;40514;52.758;6.360;2022-09-09T07:40:37;16.90;99.90
54614;DHT22;40514;52.758;6.360;2022-09-09T07:43:02;17.00;99.90
54614;DHT22;40514;52.758;6.360;2022-09-09T07:45:27;17.10;99.90
54614;DHT22;40514;52.758;6.360;2022-09-09T07:47:54;17.20;99.90
54614;DHT22;40514;52.758;6.360;2022-09-09T07:50:22;17.30;99.90
54614;DHT22;40514;52.758;6.360;2022-09-09T07:52:50;17.40;99.90
54614;DHT22;40514;52.758;6.360;2022-09-09T07:55:15;17.50;99.90
54614;DHT22;40514;52.758;6.360;2022-09-09T07:57:41;17.60;99.90
54614;DHT22;40514;52.758;6.360;2022-09-09T08:00:07;17.70;99.90
54614;DHT22;40514;52.758;6.360;2022-09-09T08:02:32;17.80;99.90
54614;DHT22;40514;52.758;6.360;2022-09-09T08:04:58;17.90;99.90
54614;DHT22;40514;52.758;6.360;2022-09-09T08:07:23;18.00;99.90
54614;DHT22;40514;52.758;6.360;2022-09-09T08:09:49;18.00;99.90
54614;DHT22;40514;52.758;6.360;2022-09-09T08:12:15;18.10;99.90
54614;DHT22;40514;52.758;6.360;2022-09-09T08:14:40;18.10;99.90
54614;DHT22;40514;52.758;6.360;2022-09-09T08:17:06;18.20;99.90
54614;DHT22;40514;52.758;6.360;2022-09-09T08:19:31;18.20;99.90
54614;DHT22;40514;52.758;6.360;2022-09-09T08:21:59;18.30;99.90
54614;DHT22;40514;52.758;6.360;2022-09-09T08:24:27;18.40;99.90
54614;DHT22;40514;52.758;6.360;2022-09-09T08:26:52;18.30;99.90
54614;DHT22;40514;52.758;6.360;2022-09-09T08:29:19;18.40;99.90
54614;DHT22;40514;52.758;6.360;2022-09-09T08:31:48;18.40;99.90
54614;DHT22;40514;52.758;6.360;2022-09-09T08:34:14;18.60;99.90
54614;DHT22;40514;52.758;6.360;2022-09-09T08:36:43;18.70;99.90
54614;DHT22;40514;52.758;6.360;2022-09-09T08:39:09;18.80;99.90
54614;DHT22;40514;52.758;6.360;2022-09-09T08:44:25;19.00;99.90
54614;DHT22;40514;52.758;6.360;2022-09-09T08:52:29;19.30;99.90
54614;DHT22;40514;52.758;6.360;2022-09-09T08:54:56;19.40;99.90
54614;DHT22;40514;52.758;6.360;2022-09-09T08:57:23;19.70;99.90
54614;DHT22;40514;52.758;6.360;2022-09-09T08:59:53;19.70;99.90
54614;DHT22;40514;52.758;6.360;2022-09-09T09:02:21;19.70;99.90
54614;DHT22;40514;52.758;6.360;2022-09-09T09:04:56;19.50;99.90
54614;DHT22;40514;52.758;6.360;2022-09-09T09:12:40;19.60;99.90
54614;DHT22;40514;52.758;6.360;2022-09-09T09:15:21;19.50;99.90
54614;DHT22;40514;52.758;6.360;2022-09-09T09:17:48;19.40;99.90
54614;DHT22;40514;52.758;6.360;2022-09-09T09:20:14;19.30;99.90
54614;DHT22;40514;52.758;6.360;2022-09-09T09:22:58;19.20;99.90
54614;DHT22;40514;52.758;6.360;2022-09-09T09:25:35;19.20;99.90
54614;DHT22;40514;52.758;6.360;2022-09-09T09:28:09;19.20;99.90
54614;DHT22;40514;52.758;6.360;2022-09-09T09:30:37;19.30;99.90
54614;DHT22;40514;52.758;6.360;2022-09-09T09:35:29;19.20;99.90
54614;DHT22;40514;52.758;6.360;2022-09-09T09:37:55;19.50;99.90
54614;DHT22;40514;52.758;6.360;2022-09-09T09:40:21;19.60;99.90
54614;DHT22;40514;52.758;6.360;2022-09-09T09:42:54;19.70;99.90
54614;DHT22;40514;52.758;6.360;2022-09-09T09:45:25;20.00;99.90
54614;DHT22;40514;52.758;6.360;2022-09-09T09:48:03;19.90;99.90
54614;DHT22;40514;52.758;6.360;2022-09-09T09:50:29;19.80;99.90
54614;DHT22;40514;52.758;6.360;2022-09-09T09:52:57;20.00;99.90
54614;DHT22;40514;52.758;6.360;2022-09-09T09:55:23;20.40;99.90
54614;DHT22;40514;52.758;6.360;2022-09-09T09:57:50;20.70;99.90
54614;DHT22;40514;52.758;6.360;2022-09-09T10:02:42;21.00;99.90
54614;DHT22;40514;52.758;6.360;2022-09-09T10:07:34;21.00;99.90
54614;DHT22;40514;52.758;6.360;2022-09-09T10:10:02;21.40;99.90
54614;DHT22;40514;52.758;6.360;2022-09-09T10:12:36;21.50;99.90
54614;DHT22;40514;52.758;6.360;2022-09-09T10:15:29;21.50;99.90
54614;DHT22;40514;52.758;6.360;2022-09-09T10:23:42;21.30;99.90
54614;DHT22;40514;52.758;6.360;2022-09-09T10:29:04;20.80;99.90
54614;DHT22;40514;52.758;6.360;2022-09-09T10:33:59;20.30;99.90
54614;DHT22;40514;52.758;6.360;2022-09-09T10:36:28;20.10;99.90
54614;DHT22;40514;52.758;6.360;2022-09-09T10:38:58;20.00;99.90
54614;DHT22;40514;52.758;6.360;2022-09-09T10:46:57;19.90;99.90
54614;DHT22;40514;52.758;6.360;2022-09-09T10:52:45;19.80;99.90
54614;DHT22;40514;52.758;6.360;2022-09-09T10:57:53;19.90;99.90
54614;DHT22;40514;52.758;6.360;2022-09-09T11:00:16;19.90;99.90
54614;DHT22;40514;52.758;6.360;2022-09-09T11:02:42;19.80;99.90
54614;DHT22;40514;52.758;6.360;2022-09-09T11:05:16;19.80;99.90
54614;DHT22;40514;52.758;6.360;2022-09-09T11:08:19;19.70;99.90
54614;DHT22;40514;52.758;6.360;2022-09-09T11:11:48;19.70;99.90
54614;DHT22;40514;52.758;6.360;2022-09-09T11:17:39;19.40;99.90
54614;DHT22;40514;52.758;6.360;2022-09-09T11:22:36;19.30;99.90
54614;DHT22;40514;52.758;6.360;2022-09-09T11:40:28;20.20;99.90
54614;DHT22;40514;52.758;6.360;2022-09-09T11:45:34;20.60;99.90
54614;DHT22;40514;52.758;6.360;2022-09-09T11:48:01;20.90;99.90
54614;DHT22;40514;52.758;6.360;2022-09-09T11:50:31;21.20;99.90
54614;DHT22;40514;52.758;6.360;2022-09-09T11:55:39;22.70;99.90
54614;DHT22;40514;52.758;6.360;2022-09-09T12:03:03;23.10;99.90
54614;DHT22;40514;52.758;6.360;2022-09-09T12:05:35;22.80;99.00
54614;DHT22;40514;52.758;6.360;2022-09-09T12:08:03;22.50;99.90
54614;DHT22;40514;52.758;6.360;2022-09-09T12:10:29;22.20;99.90
54614;DHT22;40514;52.758;6.360;2022-09-09T12:13:07;22.00;99.90
54614;DHT22;40514;52.758;6.360;2022-09-09T12:15:34;22.10;99.90
54614;DHT22;40514;52.758;6.360;2022-09-09T12:17:59;22.40;99.90
54614;DHT22;40514;52.758;6.360;2022-09-09T12:30:32;22.60;99.90
54614;DHT22;40514;52.758;6.360;2022-09-09T12:33:01;22.20;99.90
54614;DHT22;40514;52.758;6.360;2022-09-09T12:35:27;21.90;99.90
54614;DHT22;40514;52.758;6.360;2022-09-09T12:37:54;21.80;99.90
54614;DHT22;40514;52.758;6.360;2022-09-09T12:40:32;22.50;99.90
54614;DHT22;40514;52.758;6.360;2022-09-09T12:43:00;23.70;99.90
54614;DHT22;40514;52.758;6.360;2022-09-09T12:45:27;24.10;99.20
54614;DHT22;40514;52.758;6.360;2022-09-09T12:47:54;23.90;98.50
54614;DHT22;40514;52.758;6.360;2022-09-09T12:50:22;23.70;99.20
54614;DHT22;40514;52.758;6.360;2022-09-09T12:52:49;23.60;99.00
54614;DHT22;40514;52.758;6.360;2022-09-09T12:55:19;24.10;99.80
54614;DHT22;40514;52.758;6.360;2022-09-09T12:57:46;24.20;97.10
54614;DHT22;40514;52.758;6.360;2022-09-09T13:00:19;24.00;97.80
54614;DHT22;40514;52.758;6.360;2022-09-09T13:02:46;23.60;97.40
54614;DHT22;40514;52.758;6.360;2022-09-09T13:07:45;23.00;96.70
54614;DHT22;40514;52.758;6.360;2022-09-09T13:10:11;22.70;97.80
54614;DHT22;40514;52.758;6.360;2022-09-09T13:12:37;22.70;99.60
54614;DHT22;40514;52.758;6.360;2022-09-09T13:15:03;22.80;99.90
54614;DHT22;40514;52.758;6.360;2022-09-09T13:17:28;22.60;99.90
54614;DHT22;40514;52.758;6.360;2022-09-09T13:19:54;22.40;99.90
54614;DHT22;40514;52.758;6.360;2022-09-09T13:22:36;22.10;99.90
54614;DHT22;40514;52.758;6.360;2022-09-09T13:25:06;21.90;99.90
54614;DHT22;40514;52.758;6.360;2022-09-09T13:27:50;21.70;99.90
54614;DHT22;40514;52.758;6.360;2022-09-09T13:30:24;21.50;99.90
54614;DHT22;40514;52.758;6.360;2022-09-09T13:33:18;21.30;99.90
54614;DHT22;40514;52.758;6.360;2022-09-09T13:35:45;21.30;99.90
54614;DHT22;40514;52.758;6.360;2022-09-09T13:38:13;21.40;99.90
54614;DHT22;40514;52.758;6.360;2022-09-09T13:40:39;21.40;99.90
54614;DHT22;40514;52.758;6.360;2022-09-09T13:43:05;21.50;99.90
54614;DHT22;40514;52.758;6.360;2022-09-09T13:45:30;21.40;99.90
54614;DHT22;40514;52.758;6.360;2022-09-09T13:47:56;21.30;99.90
54614;DHT22;40514;52.758;6.360;2022-09-09T13:50:25;21.30;99.90
54614;DHT22;40514;52.758;6.360;2022-09-09T13:52:52;21.20;99.90
54614;DHT22;40514;52.758;6.360;2022-09-09T13:55:18;21.20;99.90
54614;DHT22;40514;52.758;6.360;2022-09-09T13:57:51;21.10;99.90
54614;DHT22;40514;52.758;6.360;2022-09-09T14:00:16;20.90;99.90
54614;DHT22;40514;52.758;6.360;2022-09-09T14:02:42;20.70;99.90
54614;DHT22;40514;52.758;6.360;2022-09-09T14:05:09;20.60;99.90
54614;DHT22;40514;52.758;6.360;2022-09-09T14:07:35;20.50;99.90
54614;DHT22;40514;52.758;6.360;2022-09-09T14:10:00;20.50;99.90
54614;DHT22;40514;52.758;6.360;2022-09-09T14:12:26;20.60;99.90
54614;DHT22;40514;52.758;6.360;2022-09-09T14:14:51;20.70;99.90
54614;DHT22;40514;52.758;6.360;2022-09-09T14:17:16;20.90;99.90
54614;DHT22;40514;52.758;6.360;2022-09-09T14:19:42;21.00;99.90
54614;DHT22;40514;52.758;6.360;2022-09-09T14:22:08;21.10;99.90
54614;DHT22;40514;52.758;6.360;2022-09-09T14:24:33;21.30;99.90
54614;DHT22;40514;52.758;6.360;2022-09-09T14:26:59;21.40;99.90
54614;DHT22;40514;52.758;6.360;2022-09-09T14:29:24;21.30;99.90
54614;DHT22;40514;52.758;6.360;2022-09-09T14:31:51;21.40;99.90
54614;DHT22;40514;52.758;6.360;2022-09-09T14:34:17;21.40;99.90
54614;DHT22;40514;52.758;6.360;2022-09-09T14:36:43;21.30;99.90
54614;DHT22;40514;52.758;6.360;2022-09-09T14:39:10;21.20;99.90
54614;DHT22;40514;52.758;6.360;2022-09-09T14:41:35;21.00;99.90
54614;DHT22;40514;52.758;6.360;2022-09-09T14:44:01;20.90;99.90
54614;DHT22;40514;52.758;6.360;2022-09-09T14:46:26;20.80;99.90
54614;DHT22;40514;52.758;6.360;2022-09-09T14:48:52;20.90;99.90
54614;DHT22;40514;52.758;6.360;2022-09-09T14:51:19;20.90;99.90
54614;DHT22;40514;52.758;6.360;2022-09-09T14:53:45;20.80;99.90
54614;DHT22;40514;52.758;6.360;2022-09-09T14:56:12;20.70;99.90
54614;DHT22;40514;52.758;6.360;2022-09-09T14:58:38;20.50;99.90
54614;DHT22;40514;52.758;6.360;2022-09-09T15:01:04;20.30;99.90
54614;DHT22;40514;52.758;6.360;2022-09-09T15:03:30;20.30;99.90
54614;DHT22;40514;52.758;6.360;2022-09-09T15:05:55;20.20;99.90
54614;DHT22;40514;52.758;6.360;2022-09-09T15:08:23;20.10;99.90
54614;DHT22;40514;52.758;6.360;2022-09-09T15:10:49;20.10;99.90
54614;DHT22;40514;52.758;6.360;2022-09-09T15:13:15;20.10;99.90
54614;DHT22;40514;52.758;6.360;2022-09-09T15:15:42;20.10;99.90
54614;DHT22;40514;52.758;6.360;2022-09-09T15:18:08;20.10;99.90
54614;DHT22;40514;52.758;6.360;2022-09-09T15:20:33;20.10;99.90
54614;DHT22;40514;52.758;6.360;2022-09-09T15:23:02;20.00;99.90
54614;DHT22;40514;52.758;6.360;2022-09-09T15:25:28;19.80;99.90
54614;DHT22;40514;52.758;6.360;2022-09-09T15:27:54;19.70;99.90
54614;DHT22;40514;52.758;6.360;2022-09-09T15:30:19;19.60;99.90
54614;DHT22;40514;52.758;6.360;2022-09-09T15:32:44;19.50;99.90
54614;DHT22;40514;52.758;6.360;2022-09-09T15:35:10;19.40;99.90
54614;DHT22;40514;52.758;6.360;2022-09-09T15:37:35;19.30;99.90
54614;DHT22;40514;52.758;6.360;2022-09-09T15:40:01;19.20;99.90
54614;DHT22;40514;52.758;6.360;2022-09-09T15:42:26;19.10;99.90
54614;DHT22;40514;52.758;6.360;2022-09-09T15:44:52;19.10;99.90
54614;DHT22;40514;52.758;6.360;2022-09-09T15:47:17;19.10;99.90
54614;DHT22;40514;52.758;6.360;2022-09-09T15:49:43;19.10;99.90
54614;DHT22;40514;52.758;6.360;2022-09-09T15:52:09;19.00;99.90
54614;DHT22;40514;52.758;6.360;2022-09-09T15:54:36;19.10;99.90
54614;DHT22;40514;52.758;6.360;2022-09-09T15:57:04;19.10;99.90
54614;DHT22;40514;52.758;6.360;2022-09-09T15:59:30;19.00;99.90
54614;DHT22;40514;52.758;6.360;2022-09-09T16:01:57;19.00;99.90
54614;DHT22;40514;52.758;6.360;2022-09-09T16:04:24;19.00;99.90
54614;DHT22;40514;52.758;6.360;2022-09-09T16:06:53;19.00;99.90
54614;DHT22;40514;52.758;6.360;2022-09-09T16:09:18;19.00;99.90
54614;DHT22;40514;52.758;6.360;2022-09-09T16:11:44;19.00;99.90
54614;DHT22;40514;52.758;6.360;2022-09-09T16:14:10;19.10;99.90
54614;DHT22;40514;52.758;6.360;2022-09-09T16:16:36;19.10;99.90
54614;DHT22;40514;52.758;6.360;2022-09-09T16:19:06;19.10;99.90
54614;DHT22;40514;52.758;6.360;2022-09-09T16:21:36;19.10;99.90
54614;DHT22;40514;52.758;6.360;2022-09-09T16:24:03;19.10;99.90
54614;DHT22;40514;52.758;6.360;2022-09-09T16:26:30;19.10;99.90
54614;DHT22;40514;52.758;6.360;2022-09-09T16:28:56;19.10;99.90
54614;DHT22;40514;52.758;6.360;2022-09-09T16:31:23;19.10;99.90
54614;DHT22;40514;52.758;6.360;2022-09-09T16:33:49;19.10;99.90
54614;DHT22;40514;52.758;6.360;2022-09-09T16:36:20;19.10;99.90
54614;DHT22;40514;52.758;6.360;2022-09-09T16:38:46;19.10;99.90
54614;DHT22;40514;52.758;6.360;2022-09-09T16:41:12;19.10;99.90
54614;DHT22;40514;52.758;6.360;2022-09-09T16:43:38;19.10;99.90
54614;DHT22;40514;52.758;6.360;2022-09-09T16:46:25;19.10;99.90
54614;DHT22;40514;52.758;6.360;2022-09-09T16:48:49;19.00;99.90
54614;DHT22;40514;52.758;6.360;2022-09-09T16:51:19;19.00;99.90
54614;DHT22;40514;52.758;6.360;2022-09-09T16:53:45;18.90;99.90
54614;DHT22;40514;52.758;6.360;2022-09-09T16:56:12;18.90;99.90
54614;DHT22;40514;52.758;6.360;2022-09-09T16:58:38;18.90;99.90
54614;DHT22;40514;52.758;6.360;2022-09-09T17:01:03;18.80;99.90
54614;DHT22;40514;52.758;6.360;2022-09-09T17:03:29;18.80;99.90
54614;DHT22;40514;52.758;6.360;2022-09-09T17:05:56;18.70;99.90
54614;DHT22;40514;52.758;6.360;2022-09-09T17:08:23;18.70;99.90
54614;DHT22;40514;52.758;6.360;2022-09-09T17:10:48;18.70;99.90
54614;DHT22;40514;52.758;6.360;2022-09-09T17:13:14;18.70;99.90
54614;DHT22;40514;52.758;6.360;2022-09-09T17:15:40;18.70;99.90
54614;DHT22;40514;52.758;6.360;2022-09-09T17:18:07;18.70;99.90
54614;DHT22;40514;52.758;6.360;2022-09-09T17:20:35;18.70;99.90
54614;DHT22;40514;52.758;6.360;2022-09-09T17:23:00;18.70;99.90
54614;DHT22;40514;52.758;6.360;2022-09-09T17:25:26;18.60;99.90
54614;DHT22;40514;52.758;6.360;2022-09-09T17:27:51;18.60;99.90
54614;DHT22;40514;52.758;6.360;2022-09-09T17:30:18;18.60;99.90
54614;DHT22;40514;52.758;6.360;2022-09-09T17:32:44;18.60;99.90
54614;DHT22;40514;52.758;6.360;2022-09-09T17:35:09;18.60;99.90
54614;DHT22;40514;52.758;6.360;2022-09-09T17:37:35;18.60;99.90
54614;DHT22;40514;52.758;6.360;2022-09-09T17:40:00;18.50;99.90
54614;DHT22;40514;52.758;6.360;2022-09-09T17:42:26;18.50;99.90
54614;DHT22;40514;52.758;6.360;2022-09-09T17:44:51;18.50;99.90
54614;DHT22;40514;52.758;6.360;2022-09-09T17:47:17;18.40;99.90
54614;DHT22;40514;52.758;6.360;2022-09-09T17:49:42;18.40;99.90
54614;DHT22;40514;52.758;6.360;2022-09-09T17:52:08;18.30;99.90